Time;durP1;ratioP1;P1;durP2;ratioP2;P2;SDS_P1;SDS_P2;PMS_P1;PMS_P2;Temp;Humidity;BMP_temperature;BMP_pressure;BME280_temperature;BME280_humidity;BME280_pressure;Samples;Min_cycle;Max_cycle;Signal;HPM_P1;HPM_P2
2022/10/05 00:01:22;;;;;;;8.27;3.55;;;14.70;99.90;;;;;;5091133;28;20127;-88
2022/10/05 00:03:50;;;;;;;6.50;3.40;;;14.70;99.90;;;;;;5107345;28;20115;-87
2022/10/05 00:06:16;;;;;;;8.15;3.45;;;14.70;99.90;;;;;;5123228;28;20044;-88
2022/10/05 00:08:43;;;;;;;7.35;3.55;;;14.70;99.90;;;;;;5077973;28;20853;-88
2022/10/05 00:11:13;;;;;;;7.28;3.40;;;14.70;99.90;;;;;;5077669;28;20040;-88
2022/10/05 00:13:41;;;;;;;7.35;3.45;;;14.80;99.90;;;;;;5110913;28;20055;-87
2022/10/05 00:16:10;;;;;;;7.18;3.50;;;14.70;99.90;;;;;;5110708;28;20044;-87
2022/10/05 00:18:38;;;;;;;6.25;3.08;;;14.70;99.90;;;;;;5127419;28;20047;-88
2022/10/05 00:21:26;;;;;;;9.68;3.80;;;14.70;99.90;;;;;;5094174;28;20042;-87
2022/10/05 00:23:56;;;;;;;8.75;3.40;;;14.80;99.90;;;;;;5127043;28;20071;-88
2022/10/05 00:26:25;;;;;;;5.78;3.10;;;14.70;99.90;;;;;;5110653;28;20032;-88
2022/10/05 00:28:53;;;;;;;5.65;3.03;;;14.70;99.90;;;;;;5110414;28;20040;-88
2022/10/05 00:31:22;;;;;;;5.85;3.40;;;14.70;99.90;;;;;;5090172;28;20102;-87
2022/10/05 00:33:50;;;;;;;9.65;3.35;;;14.70;99.90;;;;;;5090279;28;20044;-84
2022/10/05 00:36:17;;;;;;;7.47;3.22;;;14.70;99.90;;;;;;5090504;28;20132;-87
2022/10/05 00:38:44;;;;;;;8.90;3.50;;;14.70;99.90;;;;;;5073677;28;20075;-87
2022/10/05 00:41:22;;;;;;;6.20;3.17;;;14.70;99.90;;;;;;5090494;28;20068;-88
2022/10/05 00:44:22;;;;;;;7.28;3.22;;;14.70;99.90;;;;;;5105105;28;20497;-88
2022/10/05 00:47:06;;;;;;;11.13;3.40;;;14.70;99.90;;;;;;5107023;28;20141;-87
2022/10/05 00:50:08;;;;;;;7.45;3.30;;;14.70;99.90;;;;;;5090163;28;20511;-88
2022/10/05 00:53:01;;;;;;;7.03;3.17;;;14.70;99.90;;;;;;5094904;28;20036;-88
2022/10/05 00:55:34;;;;;;;10.27;3.28;;;14.70;99.90;;;;;;5110290;28;20036;-88
2022/10/05 00:58:07;;;;;;;6.75;3.30;;;14.70;99.90;;;;;;5110163;28;20139;-87
2022/10/05 01:00:45;;;;;;;6.57;2.80;;;14.70;99.90;;;;;;5110839;28;20123;-87
2022/10/05 01:03:21;;;;;;;9.68;3.40;;;14.70;99.90;;;;;;5110473;28;20036;-88
2022/10/05 01:06:13;;;;;;;6.70;3.00;;;14.70;99.90;;;;;;5126983;28;20032;-88
2022/10/05 01:08:49;;;;;;;6.15;2.92;;;14.70;99.90;;;;;;5109975;28;20404;-87
2022/10/05 01:11:28;;;;;;;8.02;3.28;;;14.70;99.90;;;;;;5110458;28;20047;-88
2022/10/05 01:14:15;;;;;;;5.43;2.95;;;14.70;99.90;;;;;;5111128;28;20122;-87
2022/10/05 01:17:06;;;;;;;8.48;3.15;;;14.70;99.90;;;;;;5114255;28;20052;-88
2022/10/05 01:19:41;;;;;;;5.30;2.55;;;14.70;99.90;;;;;;5114677;28;20040;-88
2022/10/05 01:22:34;;;;;;;9.23;2.95;;;14.70;99.90;;;;;;5113974;28;20044;-87
2022/10/05 01:25:23;;;;;;;7.13;2.95;;;14.70;99.90;;;;;;5113989;28;20457;-88
2022/10/05 01:27:56;;;;;;;6.20;2.75;;;14.70;99.90;;;;;;5113938;28;20130;-87
2022/10/05 01:30:23;;;;;;;4.85;2.70;;;14.70;99.90;;;;;;5130979;28;20476;-88
2022/10/05 01:32:56;;;;;;;7.07;2.80;;;14.70;99.90;;;;;;5097449;28;20071;-88
2022/10/05 01:35:48;;;;;;;5.43;2.83;;;14.60;99.90;;;;;;5130898;28;20126;-88
2022/10/05 01:38:36;;;;;;;7.90;2.90;;;14.60;99.90;;;;;;5113672;28;20047;-88
2022/10/05 01:41:33;;;;;;;5.22;2.65;;;14.60;99.90;;;;;;5113891;28;20130;-88
2022/10/05 01:44:18;;;;;;;6.75;2.58;;;14.60;99.90;;;;;;5095729;28;20048;-88
2022/10/05 01:47:08;;;;;;;5.57;2.80;;;14.60;99.90;;;;;;5113402;28;20039;-88
2022/10/05 01:49:59;;;;;;;5.20;2.75;;;14.60;99.90;;;;;;5130814;28;20421;-88
2022/10/05 01:52:28;;;;;;;6.60;2.75;;;14.60;99.90;;;;;;5114519;28;20093;-87
2022/10/05 01:55:43;;;;;;;6.55;2.85;;;14.60;99.90;;;;;;5113833;28;20067;-87
2022/10/05 01:58:47;;;;;;;5.18;3.15;;;14.60;99.90;;;;;;5126256;28;20043;-87
2022/10/05 02:01:40;;;;;;;7.18;2.90;;;14.60;99.90;;;;;;5130103;28;20115;-87
2022/10/05 02:04:14;;;;;;;10.20;4.05;;;14.60;99.90;;;;;;5112963;28;20641;-88
2022/10/05 02:06:45;;;;;;;5.45;2.83;;;14.60;99.90;;;;;;5113457;28;20040;-87
2022/10/05 02:09:21;;;;;;;6.18;2.63;;;14.60;99.90;;;;;;5113233;28;20047;-87
2022/10/05 02:11:57;;;;;;;8.05;2.70;;;14.60;99.90;;;;;;5113183;28;20040;-88
2022/10/05 02:14:29;;;;;;;9.63;3.38;;;14.60;99.90;;;;;;5112901;28;20511;-87
2022/10/05 02:17:00;;;;;;;6.07;3.15;;;14.50;99.90;;;;;;5129621;28;20044;-87
2022/10/05 02:19:41;;;;;;;5.95;3.25;;;14.50;99.90;;;;;;5113117;28;20043;-86
2022/10/05 02:22:37;;;;;;;6.35;3.03;;;14.50;99.90;;;;;;5112943;28;20062;-86
2022/10/05 02:25:12;;;;;;;8.25;3.47;;;14.50;99.90;;;;;;5089567;28;20478;-84
2022/10/05 02:28:08;;;;;;;6.78;3.15;;;14.50;99.90;;;;;;5112924;28;20082;-86
2022/10/05 02:30:38;;;;;;;;;;;14.50;99.90;;;;;;5113022;28;20035;-86
2022/10/05 02:33:17;;;;;;;6.50;2.88;;;14.50;99.90;;;;;;5112662;28;19982;-84
2022/10/05 02:35:44;;;;;;;6.40;3.10;;;14.50;99.90;;;;;;5112827;28;20040;-86
2022/10/05 02:38:25;;;;;;;7.28;3.47;;;14.40;99.90;;;;;;5129052;28;20557;-87
2022/10/05 02:41:04;;;;;;;7.05;3.42;;;14.40;99.90;;;;;;5112726;28;20119;-86
2022/10/05 02:44:09;;;;;;;6.43;3.08;;;14.40;99.90;;;;;;5112238;28;20036;-86
2022/10/05 02:46:51;;;;;;;5.50;2.88;;;14.40;99.90;;;;;;5109475;28;20087;-86
2022/10/05 02:49:39;;;;;;;8.48;3.25;;;14.40;99.90;;;;;;5112856;28;20078;-86
2022/10/05 02:52:24;;;;;;;12.93;3.65;;;14.40;99.90;;;;;;5112540;28;20044;-86
2022/10/05 02:55:16;;;;;;;8.07;3.35;;;14.40;99.90;;;;;;5112634;28;20032;-86
2022/10/05 02:58:20;;;;;;;7.20;3.25;;;14.40;99.90;;;;;;5112097;28;20043;-86
2022/10/05 03:00:54;;;;;;;7.60;3.53;;;14.40;99.90;;;;;;5112262;28;20537;-87
2022/10/05 03:03:40;;;;;;;5.72;3.28;;;14.40;99.90;;;;;;5112424;28;20036;-87
2022/10/05 03:06:32;;;;;;;8.10;3.90;;;14.40;99.90;;;;;;5112553;28;20077;-87
2022/10/05 03:09:08;;;;;;;7.78;3.90;;;14.40;99.90;;;;;;5128146;28;20071;-85
2022/10/05 03:11:53;;;;;;;;;;;14.40;99.90;;;;;;5112043;28;20046;-87
2022/10/05 03:14:31;;;;;;;8.02;3.80;;;14.50;99.90;;;;;;5111880;28;20007;-86
2022/10/05 03:17:22;;;;;;;8.50;3.45;;;14.40;99.90;;;;;;5128694;28;20121;-87
2022/10/05 03:20:24;;;;;;;9.80;3.50;;;14.50;99.90;;;;;;5111726;28;20135;-87
2022/10/05 03:22:57;;;;;;;6.57;3.25;;;14.50;99.90;;;;;;5111470;28;20036;-86
2022/10/05 03:25:26;;;;;;;7.50;3.42;;;14.50;99.90;;;;;;5111592;28;20128;-87
2022/10/05 03:28:21;;;;;;;7.88;3.80;;;14.50;99.90;;;;;;5111706;28;20039;-87
2022/10/05 03:31:18;;;;;;;6.88;3.30;;;14.50;99.90;;;;;;5111515;28;20036;-87
2022/10/05 03:34:12;;;;;;;6.45;3.17;;;14.50;99.90;;;;;;5111328;28;20492;-87
2022/10/05 03:37:05;;;;;;;12.38;3.40;;;14.50;99.90;;;;;;5111215;28;20052;-87
2022/10/05 03:39:43;;;;;;;6.40;3.22;;;14.50;99.90;;;;;;5111357;28;20131;-86
2022/10/05 03:42:29;;;;;;;8.85;3.53;;;14.50;99.90;;;;;;5111206;28;20044;-87
2022/10/05 03:45:21;;;;;;;6.57;3.15;;;14.50;99.90;;;;;;5111560;28;20044;-87
2022/10/05 03:48:07;;;;;;;7.05;3.22;;;14.40;99.90;;;;;;5112258;28;20035;-87
2022/10/05 03:50:46;;;;;;;8.80;3.17;;;14.40;99.90;;;;;;5112137;28;20044;-87
2022/10/05 03:53:31;;;;;;;8.00;3.10;;;14.40;99.90;;;;;;5110858;28;20039;-87
2022/10/05 03:56:15;;;;;;;6.57;3.00;;;14.50;99.90;;;;;;5111474;28;20046;-87
2022/10/05 03:59:02;;;;;;;5.55;2.92;;;14.40;99.90;;;;;;5127824;28;20056;-87
2022/10/05 04:01:41;;;;;;;8.57;3.22;;;14.50;99.90;;;;;;5111487;28;20050;-87
2022/10/05 04:04:20;;;;;;;5.85;2.90;;;14.40;99.90;;;;;;5091201;28;20037;-86
2022/10/05 04:06:48;;;;;;;6.25;2.78;;;14.40;99.90;;;;;;5091075;28;20037;-87
2022/10/05 04:09:28;;;;;;;7.50;3.30;;;14.40;99.90;;;;;;5073887;28;20044;-86
2022/10/05 04:12:20;;;;;;;7.93;3.92;;;14.40;99.90;;;;;;5090634;28;20050;-87
2022/10/05 04:14:52;;;;;;;6.05;2.95;;;14.40;99.90;;;;;;5107226;28;20043;-87
2022/10/05 04:17:41;;;;;;;6.68;3.25;;;14.40;99.90;;;;;;5090692;28;20048;-84
2022/10/05 04:20:16;;;;;;;7.75;3.10;;;14.50;99.90;;;;;;5090553;28;20082;-87
2022/10/05 04:23:06;;;;;;;;;;;14.40;99.90;;;;;;5090477;28;20178;-87
2022/10/05 04:26:09;;;;;;;5.35;2.85;;;14.40;99.90;;;;;;5106929;28;19943;-87
2022/10/05 04:28:44;;;;;;;5.72;2.80;;;14.40;99.90;;;;;;5081933;28;20078;-86
2022/10/05 04:31:41;;;;;;;6.90;3.45;;;14.40;99.90;;;;;;5090487;28;20044;-86
2022/10/05 04:34:35;;;;;;;7.55;3.00;;;14.40;99.90;;;;;;5088384;28;20423;-86
2022/10/05 04:37:17;;;;;;;7.07;3.22;;;14.40;99.90;;;;;;5090533;28;20499;-86
2022/10/05 04:40:04;;;;;;;6.18;3.15;;;14.40;99.90;;;;;;5090609;28;20037;-87
2022/10/05 04:42:45;;;;;;;6.22;3.30;;;14.40;99.90;;;;;;5090517;28;20032;-87
2022/10/05 04:45:36;;;;;;;10.25;3.90;;;14.40;99.90;;;;;;5101772;28;20043;-87
2022/10/05 04:48:12;;;;;;;5.60;3.40;;;14.30;99.90;;;;;;5110250;28;20065;-86
2022/10/05 04:50:38;;;;;;;;;;;14.40;99.90;;;;;;5131254;28;20043;-86
2022/10/05 04:53:19;;;;;;;7.25;3.38;;;14.30;99.90;;;;;;5114853;28;19927;-87
2022/10/05 04:55:58;;;;;;;8.07;3.40;;;14.30;99.90;;;;;;5114470;28;20040;-86
2022/10/05 04:58:44;;;;;;;7.05;3.42;;;14.30;99.90;;;;;;5113613;28;20135;-86
2022/10/05 05:01:48;;;;;;;6.25;3.25;;;14.30;99.90;;;;;;5114294;28;20074;-86
2022/10/05 05:04:55;;;;;;;8.73;3.80;;;14.30;99.90;;;;;;5114515;28;20499;-86
2022/10/05 05:07:39;;;;;;;;;;;14.20;99.90;;;;;;5101833;28;20083;-86
2022/10/05 05:10:34;;;;;;;6.68;3.45;;;14.20;99.90;;;;;;5114234;28;19965;-86
2022/10/05 05:13:07;;;;;;;9.75;3.88;;;14.20;99.90;;;;;;5114148;28;20115;-87
2022/10/05 05:15:46;;;;;;;8.77;4.10;;;14.30;99.90;;;;;;5114102;28;20547;-87
2022/10/05 05:18:34;;;;;;;6.35;3.63;;;14.20;99.90;;;;;;5114055;28;20044;-87
2022/10/05 05:21:13;;;;;;;6.88;3.55;;;14.20;99.90;;;;;;5119566;28;20509;-86
2022/10/05 05:24:14;;;;;;;9.38;4.10;;;14.20;99.90;;;;;;5113456;28;20040;-86
2022/10/05 05:27:07;;;;;;;8.02;3.38;;;14.20;99.90;;;;;;5113987;28;20047;-86
2022/10/05 05:29:53;;;;;;;9.05;3.88;;;14.20;99.90;;;;;;5113752;28;20047;-86
2022/10/05 05:32:33;;;;;;;;;;;14.20;99.90;;;;;;5114463;28;20044;-86
2022/10/05 05:35:21;;;;;;;10.93;3.90;;;14.20;99.90;;;;;;5130735;28;19920;-87
2022/10/05 05:38:09;;;;;;;8.85;4.07;;;14.20;99.90;;;;;;5113548;28;20040;-87
2022/10/05 05:41:00;;;;;;;7.78;3.78;;;14.20;99.90;;;;;;5121714;28;20036;-86
2022/10/05 05:43:36;;;;;;;11.15;3.97;;;14.20;99.90;;;;;;5113688;28;20036;-87
2022/10/05 05:46:35;;;;;;;8.70;3.95;;;14.20;99.90;;;;;;5113376;28;20067;-86
2022/10/05 05:49:13;;;;;;;9.88;4.05;;;14.20;99.90;;;;;;5127735;28;20055;-87
2022/10/05 05:51:57;;;;;;;12.15;4.47;;;14.20;99.90;;;;;;5129604;28;20071;-86
2022/10/05 05:54:26;;;;;;;9.65;4.45;;;14.20;99.90;;;;;;5113521;28;20048;-87
2022/10/05 05:57:07;;;;;;;8.90;4.32;;;14.20;99.90;;;;;;5113118;28;20458;-86
2022/10/05 05:59:59;;;;;;;8.38;3.95;;;14.20;99.90;;;;;;5114125;28;20105;-86
2022/10/05 06:02:42;;;;;;;9.75;4.20;;;14.20;99.90;;;;;;5113579;28;20040;-86
2022/10/05 06:05:46;;;;;;;12.93;4.40;;;14.20;99.90;;;;;;5113088;28;20450;-87
2022/10/05 06:08:42;;;;;;;8.63;4.20;;;14.10;99.90;;;;;;5107152;28;20512;-87
2022/10/05 06:11:22;;;;;;;12.38;4.60;;;14.10;99.90;;;;;;5113400;28;20036;-87
2022/10/05 06:13:50;;;;;;;8.57;4.60;;;14.10;99.90;;;;;;5105503;28;20044;-86
2022/10/05 06:16:23;;;;;;;8.70;4.45;;;14.10;99.90;;;;;;5096054;28;20044;-86
2022/10/05 06:18:58;;;;;;;8.20;4.20;;;14.10;99.90;;;;;;5112236;28;20043;-87
2022/10/05 06:21:25;;;;;;;;;;;14.10;99.90;;;;;;5113413;28;20043;-86
2022/10/05 06:24:14;;;;;;;11.60;4.47;;;14.10;99.90;;;;;;5113020;28;19916;-87
2022/10/05 06:27:10;;;;;;;9.77;4.70;;;14.10;99.90;;;;;;5112472;28;20106;-87
2022/10/05 06:29:43;;;;;;;8.57;4.35;;;14.10;99.90;;;;;;5109717;28;20033;-87
2022/10/05 06:32:34;;;;;;;9.32;4.47;;;14.10;99.90;;;;;;5107664;28;20416;-86
2022/10/05 06:35:36;;;;;;;9.65;4.53;;;14.10;99.90;;;;;;5126251;28;20051;-87
2022/10/05 06:38:15;;;;;;;8.05;4.50;;;14.10;99.90;;;;;;5107147;28;20075;-87
2022/10/05 06:41:03;;;;;;;12.55;4.20;;;14.10;99.90;;;;;;5129295;28;20039;-87
2022/10/05 06:43:56;;;;;;;8.85;3.97;;;14.10;99.90;;;;;;5100347;28;20044;-87
2022/10/05 06:46:41;;;;;;;11.60;4.60;;;14.10;99.90;;;;;;5125990;28;20040;-86
2022/10/05 06:49:18;;;;;;;7.55;4.20;;;14.10;99.90;;;;;;5111374;28;20036;-87
2022/10/05 06:51:55;;;;;;;10.63;4.72;;;14.10;99.90;;;;;;5109565;28;20096;-87
2022/10/05 06:54:28;;;;;;;10.60;4.05;;;14.10;99.90;;;;;;5126171;28;20404;-87
2022/10/05 06:57:11;;;;;;;8.73;4.05;;;14.10;99.90;;;;;;5112190;28;20551;-88
2022/10/05 06:59:56;;;;;;;8.43;4.22;;;14.10;99.90;;;;;;5105657;28;20048;-88
2022/10/05 07:02:47;;;;;;;7.43;4.50;;;14.20;99.90;;;;;;5111284;28;20068;-89
2022/10/05 07:05:46;;;;;;;8.73;4.35;;;14.20;99.90;;;;;;5103315;28;20377;-89
2022/10/05 07:08:26;;;;;;;9.65;4.63;;;14.20;99.90;;;;;;5103132;28;20050;-91
2022/10/05 07:11:09;;;;;;;7.40;4.03;;;14.20;99.90;;;;;;5103352;28;20063;-87
2022/10/05 07:14:01;;;;;;;9.15;4.78;;;14.20;99.90;;;;;;5126771;28;20715;-88
2022/10/05 07:16:55;;;;;;;8.15;4.05;;;14.20;99.90;;;;;;5102516;28;20067;-88
2022/10/05 07:19:55;;;;;;;7.97;4.20;;;14.20;99.90;;;;;;5111570;28;20178;-87
2022/10/05 07:23:00;;;;;;;7.65;4.18;;;14.20;99.90;;;;;;5111932;28;20036;-87
2022/10/05 07:25:31;;;;;;;7.22;4.07;;;14.20;99.90;;;;;;5111265;28;20028;-87
2022/10/05 07:28:08;;;;;;;8.23;4.07;;;14.20;99.90;;;;;;5112005;28;20028;-88
2022/10/05 07:30:55;;;;;;;7.53;4.22;;;14.20;99.90;;;;;;5126691;28;20041;-88
2022/10/05 07:33:39;;;;;;;7.57;3.88;;;14.30;99.90;;;;;;5107740;28;20672;-88
2022/10/05 07:39:56;;;;;;;9.10;4.25;;;14.30;99.90;;;;;;5108263;28;20415;-87
2022/10/05 07:42:37;;;;;;;11.82;4.50;;;14.30;99.90;;;;;;5108260;28;20051;-88
2022/10/05 07:45:36;;;;;;;12.25;4.88;;;14.40;99.90;;;;;;5093492;28;20127;-88
2022/10/05 07:48:13;;;;;;;9.20;4.60;;;14.40;99.90;;;;;;5110900;28;20032;-88
2022/10/05 07:50:45;;;;;;;7.47;4.22;;;14.40;99.90;;;;;;5106913;28;20044;-88
2022/10/05 07:53:27;;;;;;;7.03;4.47;;;14.40;99.90;;;;;;5122531;28;20039;-87
2022/10/05 07:56:00;;;;;;;8.30;4.28;;;14.40;99.90;;;;;;5099890;28;20040;-87
2022/10/05 07:58:36;;;;;;;8.67;4.23;;;14.40;99.90;;;;;;5099381;28;20131;-89
2022/10/05 08:01:18;;;;;;;7.53;4.10;;;14.40;99.90;;;;;;5107126;28;20217;-86
2022/10/05 08:03:54;;;;;;;8.13;3.83;;;14.40;99.90;;;;;;5118467;28;20044;-88
2022/10/05 08:06:37;;;;;;;8.63;4.45;;;14.50;99.90;;;;;;5110662;28;20043;-87
2022/10/05 08:09:12;;;;;;;9.98;3.97;;;14.50;99.90;;;;;;5106685;28;20053;-87
2022/10/05 08:12:06;;;;;;;7.72;4.30;;;14.50;99.90;;;;;;5109511;28;20050;-86
2022/10/05 08:14:45;;;;;;;7.50;4.40;;;14.40;99.90;;;;;;5101229;28;20496;-87
2022/10/05 08:17:17;;;;;;;7.28;4.00;;;14.60;99.90;;;;;;5098837;28;20066;-87
2022/10/05 08:20:08;;;;;;;7.30;3.78;;;14.60;99.90;;;;;;5105945;28;20044;-86
2022/10/05 08:22:45;;;;;;;9.73;4.10;;;14.60;99.90;;;;;;5102952;28;20036;-86
2022/10/05 08:25:28;;;;;;;13.00;4.05;;;14.60;99.90;;;;;;5109960;28;20043;-85
2022/10/05 08:28:39;;;;;;;7.60;3.75;;;14.80;99.90;;;;;;5112459;28;20389;-86
2022/10/05 08:31:21;;;;;;;11.05;4.03;;;14.80;99.90;;;;;;5104836;28;20049;-86
2022/10/05 08:33:53;;;;;;;8.18;3.97;;;14.90;99.90;;;;;;5084314;28;20487;-87
2022/10/05 08:36:52;;;;;;;8.45;3.55;;;15.00;99.90;;;;;;5093472;28;20140;-86
2022/10/05 08:39:20;;;;;;;8.00;4.20;;;15.10;99.90;;;;;;5099119;28;20052;-87
2022/10/05 08:42:07;;;;;;;7.95;3.80;;;15.10;99.90;;;;;;5067164;28;20139;-86
2022/10/05 08:45:02;;;;;;;7.50;4.00;;;15.10;99.90;;;;;;5108494;28;20047;-87
2022/10/05 08:47:56;;;;;;;8.48;4.32;;;15.10;99.90;;;;;;5091997;28;20033;-87
2022/10/05 08:50:58;;;;;;;6.57;3.60;;;15.10;99.90;;;;;;5109677;28;20042;-86
2022/10/05 08:53:36;;;;;;;6.65;3.75;;;15.10;99.90;;;;;;5110391;28;20044;-86
2022/10/05 08:56:42;;;;;;;6.40;4.18;;;15.20;99.90;;;;;;5107197;28;20503;-86
2022/10/05 08:59:30;;;;;;;7.38;3.47;;;15.30;99.90;;;;;;5096414;28;20106;-86
2022/10/05 09:02:27;;;;;;;7.60;3.85;;;15.40;99.90;;;;;;5107347;28;20092;-86
2022/10/05 09:04:59;;;;;;;7.35;3.65;;;15.50;99.90;;;;;;5104137;28;20519;-85
2022/10/05 09:07:28;;;;;;;10.48;3.95;;;15.50;99.90;;;;;;5097463;28;20492;-86
2022/10/05 09:10:18;;;;;;;7.93;3.80;;;15.60;99.90;;;;;;5101046;28;20126;-85
2022/10/05 09:12:58;;;;;;;6.07;3.50;;;15.70;99.90;;;;;;5102086;28;20028;-86
2022/10/05 09:15:34;;;;;;;6.10;3.58;;;15.70;99.90;;;;;;5108982;28;20443;-85
2022/10/05 09:18:13;;;;;;;7.43;2.97;;;15.80;99.90;;;;;;5103233;28;20044;-86
2022/10/05 09:21:01;;;;;;;7.43;3.33;;;15.90;99.90;;;;;;5116450;28;20046;-87
2022/10/05 09:23:43;;;;;;;7.38;3.40;;;15.90;99.90;;;;;;5103193;28;20442;-86
2022/10/05 09:26:41;;;;;;;7.70;3.10;;;15.90;99.90;;;;;;5095883;28;20441;-86
2022/10/05 09:29:25;;;;;;;5.57;3.00;;;16.00;99.90;;;;;;5101964;28;20101;-85
2022/10/05 09:32:29;;;;;;;6.53;3.20;;;16.10;99.90;;;;;;5121767;28;20126;-85
2022/10/05 09:35:23;;;;;;;4.80;2.90;;;16.10;99.90;;;;;;5118394;28;20044;-85
2022/10/05 09:38:11;;;;;;;6.85;3.30;;;16.10;99.90;;;;;;5106013;28;20044;-85
2022/10/05 09:40:53;;;;;;;5.95;2.88;;;16.10;99.90;;;;;;5126225;28;20028;-86
2022/10/05 09:43:29;;;;;;;6.10;2.92;;;16.10;99.90;;;;;;5095683;28;20533;-86
2022/10/05 09:46:14;;;;;;;6.57;2.90;;;16.10;99.90;;;;;;5120555;28;20043;-85
2022/10/05 09:49:08;;;;;;;4.65;2.60;;;16.10;99.90;;;;;;5121684;28;20048;-87
2022/10/05 09:51:54;;;;;;;5.85;2.53;;;16.10;99.90;;;;;;5106737;28;20519;-86
2022/10/05 09:54:27;;;;;;;5.10;2.90;;;16.10;99.90;;;;;;5102101;28;20400;-87
2022/10/05 09:57:06;;;;;;;4.70;2.50;;;16.10;99.90;;;;;;5099083;28;20048;-88
2022/10/05 09:59:38;;;;;;;5.00;2.70;;;16.20;99.90;;;;;;5102616;28;20093;-86
2022/10/05 10:02:48;;;;;;;5.72;2.50;;;16.20;99.90;;;;;;5104475;28;20565;-86
2022/10/05 10:05:52;;;;;;;6.60;2.42;;;16.20;99.90;;;;;;5123677;28;20031;-87
2022/10/05 10:08:21;;;;;;;5.05;2.55;;;16.30;99.90;;;;;;5108311;28;20515;-86
2022/10/05 10:11:13;;;;;;;7.97;2.72;;;16.30;99.90;;;;;;5109659;28;20403;-87
2022/10/05 10:13:50;;;;;;;4.47;2.50;;;16.30;99.90;;;;;;5106025;28;20064;-87
2022/10/05 10:16:42;;;;;;;4.32;2.50;;;16.30;99.90;;;;;;5101651;28;20485;-87
2022/10/05 10:19:18;;;;;;;4.95;2.22;;;16.30;99.90;;;;;;5105167;28;20036;-86
2022/10/05 10:21:50;;;;;;;3.83;2.17;;;16.40;99.90;;;;;;5117363;28;20044;-85
2022/10/05 10:24:49;;;;;;;4.32;2.30;;;16.30;99.90;;;;;;5112698;28;20088;-86
2022/10/05 10:27:54;;;;;;;3.72;2.13;;;16.40;99.90;;;;;;5124514;28;20507;-86
2022/10/05 10:30:23;;;;;;;6.00;2.38;;;16.40;99.90;;;;;;5105192;28;20036;-85
2022/10/05 10:33:14;;;;;;;5.55;2.20;;;16.40;99.90;;;;;;5112735;28;20076;-86
2022/10/05 10:36:03;;;;;;;5.57;2.50;;;16.40;99.90;;;;;;5108288;28;20055;-84
2022/10/05 10:38:46;;;;;;;4.93;2.42;;;16.40;99.90;;;;;;5112067;28;20132;-87
2022/10/05 10:41:39;;;;;;;3.92;2.45;;;16.40;99.90;;;;;;5105975;28;20036;-86
2022/10/05 10:44:43;;;;;;;4.30;2.60;;;16.40;99.90;;;;;;5111817;28;20132;-86
2022/10/05 10:47:42;;;;;;;4.65;2.28;;;16.40;99.90;;;;;;5110220;28;20564;-86
2022/10/05 10:50:53;;;;;;;3.90;2.40;;;16.40;99.90;;;;;;5111761;28;20044;-85
2022/10/05 10:53:50;;;;;;;7.40;3.47;;;16.40;99.90;;;;;;5111506;28;20048;-86
2022/10/05 10:57:02;;;;;;;4.97;2.63;;;16.30;99.90;;;;;;5093369;28;20127;-86
2022/10/05 11:00:06;;;;;;;4.75;2.70;;;16.30;99.90;;;;;;5101658;28;20074;-86
2022/10/05 11:03:14;;;;;;;5.13;2.50;;;16.30;99.90;;;;;;5111922;28;20066;-86
2022/10/05 11:06:07;;;;;;;5.40;3.00;;;16.20;99.90;;;;;;5122079;28;20051;-85
2022/10/05 11:08:55;;;;;;;7.45;3.00;;;16.20;99.90;;;;;;5111724;28;20188;-85
2022/10/05 11:11:52;;;;;;;6.20;2.65;;;16.30;99.90;;;;;;5121639;28;20036;-85
2022/10/05 11:14:30;;;;;;;6.68;2.70;;;16.30;99.90;;;;;;5107440;28;20036;-85
2022/10/05 11:17:40;;;;;;;4.90;2.42;;;16.30;99.90;;;;;;5097747;28;20040;-85
2022/10/05 11:20:37;;;;;;;5.35;2.80;;;16.30;99.90;;;;;;5106124;28;20507;-84
2022/10/05 11:23:26;;;;;;;7.35;2.60;;;16.30;99.90;;;;;;5107134;28;20032;-84
2022/10/05 11:26:23;;;;;;;4.45;2.45;;;16.40;99.90;;;;;;5110529;28;20047;-85
2022/10/05 11:29:12;;;;;;;5.03;2.75;;;16.40;99.90;;;;;;5109994;28;20040;-86
2022/10/05 11:32:10;;;;;;;5.63;2.67;;;16.40;99.90;;;;;;5127250;28;20055;-85
2022/10/05 11:35:02;;;;;;;6.55;2.53;;;16.40;99.90;;;;;;5110128;28;20040;-86
2022/10/05 11:37:47;;;;;;;4.22;2.20;;;16.40;99.90;;;;;;5109869;28;20036;-85
2022/10/05 11:40:32;;;;;;;5.15;2.70;;;16.40;99.90;;;;;;5110082;28;20032;-86
2022/10/05 11:43:04;;;;;;;4.97;2.53;;;16.50;99.90;;;;;;5110922;28;20044;-86
2022/10/05 11:45:49;;;;;;;5.40;3.35;;;16.40;99.90;;;;;;5110652;28;20036;-86
2022/10/05 11:48:38;;;;;;;4.72;2.38;;;16.50;99.90;;;;;;5112143;28;20400;-86
2022/10/05 11:51:33;;;;;;;4.28;2.63;;;16.50;99.90;;;;;;5111353;28;20175;-88
2022/10/05 11:54:28;;;;;;;6.13;2.40;;;16.50;99.90;;;;;;5091790;28;20127;-85
2022/10/05 11:57:02;;;;;;;4.68;2.60;;;16.50;99.90;;;;;;5090041;28;20047;-85
2022/10/05 11:59:59;;;;;;;4.65;2.17;;;16.50;99.90;;;;;;5103214;28;20045;-86
2022/10/05 12:02:34;;;;;;;;;;;16.60;99.90;;;;;;5091356;28;20041;-85
2022/10/05 12:05:31;;;;;;;4.90;2.20;;;16.60;99.90;;;;;;5106380;28;20403;-85
2022/10/05 12:08:25;;;;;;;5.15;2.65;;;16.60;99.90;;;;;;5084683;28;20044;-85
2022/10/05 12:11:16;;;;;;;4.75;2.40;;;16.60;99.90;;;;;;5110032;28;20430;-86
2022/10/05 12:13:50;;;;;;;4.95;2.10;;;16.50;99.90;;;;;;5109804;28;20036;-85
2022/10/05 12:16:26;;;;;;;3.50;2.10;;;16.40;99.90;;;;;;5110270;28;20044;-85
2022/10/05 12:19:03;;;;;;;4.13;1.95;;;16.40;99.90;;;;;;5109687;28;20066;-85
2022/10/05 12:21:54;;;;;;;4.90;2.20;;;16.50;99.90;;;;;;5109907;28;20556;-85
2022/10/05 12:24:36;;;;;;;3.88;2.05;;;16.40;99.90;;;;;;5109867;28;20076;-85
2022/10/05 12:27:24;;;;;;;4.68;1.90;;;16.40;99.90;;;;;;5109589;28;20035;-85
2022/10/05 12:30:12;;;;;;;6.32;2.10;;;16.50;99.90;;;;;;5126143;28;20091;-86
2022/10/05 12:32:59;;;;;;;3.95;1.92;;;16.40;99.90;;;;;;5109667;28;20089;-85
2022/10/05 12:35:36;;;;;;;3.70;1.90;;;16.50;99.90;;;;;;5125568;28;20044;-85
2022/10/05 12:38:24;;;;;;;4.60;1.55;;;16.50;99.90;;;;;;5109753;28;20062;-85
2022/10/05 12:41:13;;;;;;;4.10;1.85;;;16.50;99.90;;;;;;5109482;28;20378;-85
2022/10/05 12:43:50;;;;;;;3.28;1.90;;;16.40;99.90;;;;;;5109182;28;20043;-85
2022/10/05 12:46:38;;;;;;;4.57;1.98;;;16.40;99.90;;;;;;5109699;28;20040;-85
2022/10/05 12:49:25;;;;;;;4.82;2.17;;;16.40;99.90;;;;;;5109644;28;20039;-85
2022/10/05 12:52:00;;;;;;;3.78;1.90;;;16.40;99.90;;;;;;5109345;28;20040;-85
2022/10/05 12:54:45;;;;;;;4.18;2.17;;;16.40;99.90;;;;;;5090709;28;20037;-85
2022/10/05 12:57:31;;;;;;;4.47;2.13;;;16.40;99.90;;;;;;5089139;28;20041;-85
2022/10/05 13:00:08;;;;;;;4.07;2.15;;;16.40;99.90;;;;;;5089111;28;20501;-86
2022/10/05 13:02:49;;;;;;;5.72;1.90;;;16.40;99.90;;;;;;5107966;28;20040;-85
2022/10/05 13:05:30;;;;;;;6.07;2.35;;;16.40;99.90;;;;;;5109104;28;20043;-84
2022/10/05 13:08:16;;;;;;;3.53;2.10;;;16.40;99.90;;;;;;5089632;28;20106;-85
2022/10/05 13:10:50;;;;;;;4.28;2.15;;;16.30;99.90;;;;;;5091966;28;20090;-86
2022/10/05 13:13:23;;;;;;;5.70;2.22;;;16.40;99.90;;;;;;5093440;28;20055;-84
2022/10/05 13:16:13;;;;;;;5.05;2.60;;;16.40;99.90;;;;;;5093058;28;20085;-86
2022/10/05 13:19:17;;;;;;;4.20;2.13;;;16.40;99.90;;;;;;5111636;28;20071;-85
2022/10/05 13:22:03;;;;;;;4.63;2.15;;;16.40;99.90;;;;;;5109383;28;20544;-85
2022/10/05 13:24:44;;;;;;;4.25;2.28;;;16.40;99.90;;;;;;5109680;28;20040;-85
2022/10/05 13:27:21;;;;;;;4.40;2.30;;;16.40;99.90;;;;;;5103945;28;20100;-86
2022/10/05 13:29:57;;;;;;;4.63;2.20;;;16.40;99.90;;;;;;5114481;28;20044;-85
2022/10/05 13:32:30;;;;;;;5.28;2.40;;;16.40;99.90;;;;;;5117544;28;20048;-85
2022/10/05 13:35:35;;;;;;;4.70;2.40;;;16.40;99.90;;;;;;5130100;28;20039;-84
2022/10/05 13:38:12;;;;;;;3.85;2.10;;;16.50;99.90;;;;;;5112616;28;20036;-85
2022/10/05 13:41:18;;;;;;;4.13;2.30;;;16.50;99.90;;;;;;5112011;28;20032;-85
2022/10/05 13:44:07;;;;;;;3.55;2.10;;;16.50;99.90;;;;;;5112950;28;20036;-85
2022/10/05 13:46:52;;;;;;;3.83;2.33;;;16.50;99.90;;;;;;5084371;28;21223;-85
2022/10/05 13:49:28;;;;;;;3.83;2.33;;;16.50;99.90;;;;;;5112418;28;20044;-85
2022/10/05 13:52:30;;;;;;;6.93;2.40;;;16.60;99.90;;;;;;5111821;28;20047;-85
2022/10/05 13:55:10;;;;;;;5.63;2.40;;;16.70;99.90;;;;;;5095587;28;20040;-85
2022/10/05 13:57:56;;;;;;;6.00;2.50;;;16.80;99.90;;;;;;5108664;28;20040;-85
2022/10/05 14:00:24;;;;;;;;;;;16.80;99.90;;;;;;5112557;28;20522;-84
2022/10/05 14:02:55;;;;;;;4.13;2.08;;;16.90;99.90;;;;;;5112033;28;19920;-85
2022/10/05 14:05:24;;;;;;;4.22;2.10;;;16.90;99.90;;;;;;5112413;28;20447;-85
2022/10/05 14:08:15;;;;;;;3.92;2.45;;;17.00;99.90;;;;;;5112458;28;20051;-86
2022/10/05 14:10:45;;;;;;;4.90;1.88;;;17.00;99.90;;;;;;5112566;28;20128;-85
2022/10/05 14:13:30;;;;;;;4.50;2.03;;;17.00;99.90;;;;;;5111959;28;20067;-86
2022/10/05 14:16:12;;;;;;;3.97;2.08;;;17.00;99.90;;;;;;5128855;28;20043;-85
2022/10/05 14:18:57;;;;;;;3.88;2.10;;;17.00;99.90;;;;;;5127384;28;20126;-86
2022/10/05 14:21:28;;;;;;;4.65;1.95;;;17.00;99.90;;;;;;5112174;28;20036;-84